Time;durP1;ratioP1;P1;durP2;ratioP2;P2;SDS_P1;SDS_P2;PMS_P1;PMS_P2;Temp;Humidity;BMP_temperature;BMP_pressure;BME280_temperature;BME280_humidity;BME280_pressure;Samples;Min_cycle;Max_cycle;Signal;HPM_P1;HPM_P2
2022/07/06 00:01:50;;;;;;;4.53;1.10;;;;;;;-144.47;37.40;53042.78;5015754;28;20069;-68
2022/07/06 00:04:15;;;;;;;4.45;1.10;;;;;;;-144.47;37.58;53096.41;5026884;28;20044;-68
2022/07/06 00:06:40;;;;;;;3.58;1.00;;;;;;;-144.47;37.70;53090.47;5026828;28;20499;-69
2022/07/06 00:09:06;;;;;;;2.88;1.00;;;;;;;-144.47;37.57;53070.59;5026366;28;20503;-67
2022/07/06 00:11:32;;;;;;;4.80;1.10;;;;;;;-144.47;37.93;53086.50;5015608;28;20467;-66
2022/07/06 00:13:57;;;;;;;4.22;1.13;;;;;;;-144.47;38.03;53088.47;5021579;28;20065;-66
2022/07/06 00:16:23;;;;;;;2.85;1.30;;;;;;;-144.47;38.34;53106.34;5028182;28;20022;-66
2022/07/06 00:18:48;;;;;;;4.28;1.20;;;;;;;-144.47;38.50;53070.59;5029722;28;20051;-66
2022/07/06 00:21:14;;;;;;;4.43;1.33;;;;;;;-144.47;38.54;53090.47;5030061;28;20087;-67
2022/07/06 00:23:39;;;;;;;6.95;1.20;;;;;;;-144.47;38.62;53078.53;5026586;28;20025;-67
2022/07/06 00:26:05;;;;;;;3.60;1.20;;;;;;;-144.47;38.34;53090.47;5021001;28;20135;-65
2022/07/06 00:28:30;;;;;;;3.28;1.13;;;;;;;-144.47;38.47;53070.59;5029952;28;20389;-65
2022/07/06 00:30:56;;;;;;;4.90;1.20;;;;;;;-144.47;38.17;53094.44;5028366;28;20431;-66
2022/07/06 00:33:21;;;;;;;3.92;1.30;;;;;;;-144.47;38.11;53116.28;5028920;28;20017;-67
2022/07/06 00:35:47;;;;;;;6.95;1.00;;;;;;;-144.47;38.64;53058.69;5029173;28;20238;-66
2022/07/06 00:38:12;;;;;;;6.88;1.38;;;;;;;-144.47;38.64;53102.38;5028852;28;20036;-65
2022/07/06 00:40:38;;;;;;;3.10;1.42;;;;;;;-144.47;38.74;53110.31;5029563;28;20543;-65
2022/07/06 00:43:03;;;;;;;7.07;1.90;;;;;;;-144.47;38.92;53108.34;5029649;28;20510;-68
2022/07/06 00:45:29;;;;;;;6.72;1.20;;;;;;;-144.47;39.21;53090.47;5027063;28;20124;-68
2022/07/06 00:47:54;;;;;;;13.52;1.30;;;;;;;-144.47;39.37;53082.53;5021380;28;20034;-67
2022/07/06 00:50:21;;;;;;;4.90;1.20;;;;;;;-144.47;39.59;53088.47;5029375;28;20426;-67
2022/07/06 00:52:50;;;;;;;6.53;1.48;;;;;;;-144.47;39.93;53144.09;5029756;28;20041;-69
2022/07/06 00:55:19;;;;;;;3.08;1.38;;;;;;;-144.47;39.99;53094.44;5029214;28;20021;-64
2022/07/06 00:57:45;;;;;;;4.53;0.90;;;;;;;-144.47;40.01;53084.50;5028971;28;20021;-65
2022/07/06 01:00:12;;;;;;;2.75;1.10;;;;;;;-144.47;40.13;53096.41;5058331;22;20064;-64
2022/07/06 01:02:38;;;;;;;13.48;1.17;;;;;;;-144.47;40.41;53114.31;5049352;28;20147;-66
2022/07/06 01:05:04;;;;;;;8.48;1.40;;;;;;;-144.47;40.48;53070.59;5050157;28;20055;-65
2022/07/06 01:07:30;;;;;;;3.10;1.30;;;;;;;-144.47;40.76;53108.34;5051206;28;20024;-67
2022/07/06 01:09:56;;;;;;;5.15;1.23;;;;;;;-144.47;40.76;53118.28;5051376;28;20025;-64
2022/07/06 01:12:21;;;;;;;9.93;1.55;;;;;;;-144.47;40.85;53134.16;5051403;28;20024;-64
2022/07/06 01:14:47;;;;;;;6.90;1.30;;;;;;;-144.47;40.93;53100.41;5051179;28;20108;-67
2022/07/06 01:17:13;;;;;;;7.82;1.40;;;;;;;-144.47;41.26;53124.22;5050834;28;20043;-64
2022/07/06 01:19:39;;;;;;;5.35;1.23;;;;;;;-144.47;41.30;53118.28;5051083;28;20415;-65
2022/07/06 01:22:05;;;;;;;4.75;1.45;;;;;;;-144.47;41.52;53098.41;5047203;28;20100;-65
2022/07/06 01:24:30;;;;;;;5.25;1.48;;;;;;;-144.47;41.60;53114.31;5050358;28;20025;-64
2022/07/06 01:26:55;;;;;;;4.65;1.35;;;;;;;-144.47;41.90;53146.09;5050691;28;20025;-63
2022/07/06 01:29:21;;;;;;;7.30;1.60;;;;;;;-144.47;42.10;53082.53;5050965;28;20059;-66
2022/07/06 01:31:50;;;;;;;3.28;1.48;;;;;;;-144.47;42.32;53128.22;5050903;28;20401;-66
2022/07/06 01:34:19;;;;;;;4.13;1.45;;;;;;;-144.47;42.62;53163.97;5051045;28;20032;-62
2022/07/06 01:36:45;;;;;;;;;;;;;;;-144.47;42.67;53154.03;5050138;28;20033;-65
2022/07/06 01:39:10;;;;;;;7.15;1.45;;;;;;;-144.47;43.00;53130.19;5051201;28;19909;-67
2022/07/06 01:41:36;;;;;;;7.53;1.90;;;;;;;-144.47;43.31;53130.19;5050594;28;20074;-63
2022/07/06 01:44:02;;;;;;;3.78;1.33;;;;;;;-144.47;43.44;53150.06;5051065;28;20110;-66
2022/07/06 01:46:27;;;;;;;7.45;2.03;;;;;;;-144.47;43.74;53130.19;5050751;28;20040;-65
2022/07/06 01:48:53;;;;;;;3.85;1.52;;;;;;;-144.47;43.94;53128.22;5050843;28;20024;-65
2022/07/06 01:51:19;;;;;;;8.77;1.70;;;;;;;-144.47;44.15;53122.25;5051071;28;20033;-66
2022/07/06 01:53:45;;;;;;;8.88;1.70;;;;;;;-144.47;44.33;53112.31;5050775;28;20115;-66
2022/07/06 01:56:11;;;;;;;4.35;1.67;;;;;;;-144.47;44.72;53124.22;5049674;28;20060;-66
2022/07/06 01:58:38;;;;;;;6.82;1.83;;;;;;;-144.47;45.07;53146.09;5050237;28;20128;-67
2022/07/06 02:01:10;;;;;;;9.80;1.52;;;;;;;-144.47;45.23;53124.22;5050908;28;20025;-63
2022/07/06 02:03:37;;;;;;;6.15;1.85;;;;;;;-144.47;45.53;53122.25;5050562;28;20035;-64
2022/07/06 02:06:03;;;;;;;5.75;1.50;;;;;;;-144.47;45.78;53161.97;5050356;28;20024;-67
2022/07/06 02:08:29;;;;;;;4.25;1.63;;;;;;;-144.47;46.06;53156.00;5050165;28;20043;-66
2022/07/06 02:10:55;;;;;;;4.93;1.92;;;;;;;-144.47;46.12;53104.38;5049185;28;20017;-64
2022/07/06 02:13:20;;;;;;;6.00;1.90;;;;;;;-144.47;46.30;53154.03;5050001;28;20021;-67
2022/07/06 02:15:45;;;;;;;3.63;1.40;;;;;;;-144.47;46.50;53126.22;5044559;28;20021;-67
2022/07/06 02:18:11;;;;;;;4.20;1.35;;;;;;;-144.47;46.47;53146.09;5048645;28;20049;-65
2022/07/06 02:20:36;;;;;;;8.77;1.70;;;;;;;-144.47;46.67;53142.09;5050390;28;20024;-64
2022/07/06 02:23:02;;;;;;;3.72;1.55;;;;;;;-144.47;46.69;53124.22;5046897;28;20390;-66
2022/07/06 02:25:27;;;;;;;4.90;1.70;;;;;;;-144.47;46.84;53102.38;5050105;28;20020;-66
2022/07/06 02:27:52;;;;;;;5.10;1.60;;;;;;;-144.47;46.90;53148.06;5050042;28;20033;-65
2022/07/06 02:30:18;;;;;;;5.38;1.83;;;;;;;-144.47;47.04;53118.28;5049969;28;20514;-66
2022/07/06 02:32:43;;;;;;;6.10;1.38;;;;;;;-144.47;47.26;53154.03;5050087;28;20029;-64
2022/07/06 02:35:09;;;;;;;10.07;2.05;;;;;;;-144.47;47.54;53171.91;5049841;28;20021;-66
2022/07/06 02:37:34;;;;;;;4.15;1.50;;;;;;;-144.47;47.57;53132.19;5049798;28;20025;-65
2022/07/06 02:39:59;;;;;;;3.42;1.55;;;;;;;-144.47;47.82;53163.97;5048436;28;20036;-66
2022/07/06 02:42:25;;;;;;;2.67;1.42;;;;;;;-144.47;48.10;53136.16;5049400;28;20025;-63
2022/07/06 02:44:53;;;;;;;8.13;1.80;;;;;;;-144.47;48.29;53148.06;5049502;28;20027;-64
2022/07/06 02:47:18;;;;;;;5.97;1.55;;;;;;;-144.47;48.49;53163.97;5047299;28;20029;-67
2022/07/06 02:49:43;;;;;;;4.80;1.40;;;;;;;-144.47;48.69;53140.13;5050165;28;20074;-63
2022/07/06 02:52:09;;;;;;;9.40;1.90;;;;;;;-144.47;48.83;53138.13;5049823;28;20399;-66
2022/07/06 02:54:34;;;;;;;2.45;1.20;;;;;;;-144.47;48.98;53124.22;5049839;28;20025;-65
2022/07/06 02:56:59;;;;;;;7.18;2.03;;;;;;;-144.47;49.38;53146.09;5049996;28;20468;-67
2022/07/06 02:59:25;;;;;;;4.22;1.38;;;;;;;-144.47;49.39;53156.00;5049616;28;20028;-64
2022/07/06 03:01:50;;;;;;;10.82;1.27;;;;;;;-144.47;49.43;53138.13;5047761;28;20385;-68
2022/07/06 03:04:15;;;;;;;4.55;1.55;;;;;;;-144.47;49.78;53132.19;5049407;28;20036;-65
2022/07/06 03:06:41;;;;;;;5.65;1.50;;;;;;;-144.47;49.73;53140.13;5049328;28;20017;-66
2022/07/06 03:09:06;;;;;;;8.85;1.77;;;;;;;-144.47;50.13;53169.91;5049574;28;20013;-65
2022/07/06 03:11:35;;;;;;;5.80;1.45;;;;;;;-144.47;50.34;53142.09;5049156;28;20486;-63
2022/07/06 03:14:04;;;;;;;4.47;1.40;;;;;;;-144.47;50.36;53148.06;5049531;28;20021;-67
2022/07/06 03:16:30;;;;;;;7.15;1.90;;;;;;;-144.47;50.49;53165.94;5041757;28;20029;-66
2022/07/06 03:18:56;;;;;;;4.95;1.50;;;;;;;-144.47;50.70;53199.72;5049272;28;20098;-65
2022/07/06 03:21:22;;;;;;;6.22;1.42;;;;;;;-144.47;50.82;53161.97;5047362;28;20024;-67
2022/07/06 03:23:47;;;;;;;11.95;3.50;;;;;;;-144.47;51.23;53187.78;5045735;28;20036;-66
2022/07/06 03:26:12;;;;;;;7.70;1.70;;;;;;;-144.47;51.39;53177.88;5048805;28;20033;-64
2022/07/06 03:28:38;;;;;;;5.28;1.48;;;;;;;-144.47;51.75;53181.84;5049080;28;20029;-67
2022/07/06 03:31:03;;;;;;;5.07;1.30;;;;;;;-144.47;51.75;53193.75;5049219;28;20101;-66
2022/07/06 03:33:28;;;;;;;6.88;1.85;;;;;;;-144.47;51.74;53167.94;5049433;28;20494;-66
2022/07/06 03:35:54;;;;;;;4.65;1.50;;;;;;;-144.47;52.08;53187.78;5048918;28;20059;-64
2022/07/06 03:38:19;;;;;;;6.30;1.67;;;;;;;-144.47;51.84;53193.75;5048716;28;20021;-66
2022/07/06 03:40:44;;;;;;;14.32;2.03;;;;;;;-144.47;52.07;53173.88;5048771;28;20020;-65
2022/07/06 03:43:10;;;;;;;7.03;1.60;;;;;;;-144.47;51.84;53175.88;5048869;28;20033;-66
2022/07/06 03:45:35;;;;;;;6.22;1.70;;;;;;;-144.47;51.73;53207.66;5047855;28;20028;-66
2022/07/06 03:48:01;;;;;;;7.13;1.77;;;;;;;-144.47;51.74;53183.81;5053260;28;20624;-64
2022/07/06 03:50:26;;;;;;;6.65;1.60;;;;;;;-144.47;51.97;53160.00;5053196;28;20017;-65
2022/07/06 03:52:51;;;;;;;5.93;1.92;;;;;;;-144.47;51.79;53205.66;5053093;28;20060;-64
2022/07/06 03:55:17;;;;;;;13.38;2.22;;;;;;;-144.47;51.93;53187.78;5052099;28;20052;-65
2022/07/06 03:57:42;;;;;;;7.75;1.55;;;;;;;-144.47;51.94;53177.88;5052667;28;20033;-63
2022/07/06 04:00:09;;;;;;;4.03;1.30;;;;;;;-144.47;51.92;53191.78;5053292;28;20021;-66
2022/07/06 04:02:34;;;;;;;6.55;1.48;;;;;;;-144.47;52.02;53193.75;5053032;28;20135;-65
2022/07/06 04:05:00;;;;;;;6.20;1.83;;;;;;;-144.47;51.99;53144.09;5052566;28;20017;-67
2022/07/06 04:07:25;;;;;;;10.23;2.10;;;;;;;-144.47;52.09;53146.09;5052468;28;20543;-68
2022/07/06 04:09:51;;;;;;;9.95;1.80;;;;;;;-144.47;52.04;53169.91;5052159;28;20033;-65
2022/07/06 04:12:16;;;;;;;6.13;1.40;;;;;;;-144.47;52.14;53189.78;5052103;28;20025;-67
2022/07/06 04:14:42;;;;;;;4.93;1.63;;;;;;;-144.47;52.14;53175.88;5052643;28;20120;-64
2022/07/06 04:19:52;;;;;;;4.32;1.70;;;;;;;-144.47;51.88;53152.03;5052651;28;20028;-67
2022/07/06 04:22:17;;;;;;;7.15;1.73;;;;;;;-144.47;51.82;53177.88;5052679;28;20029;-64
2022/07/06 04:24:42;;;;;;;6.15;1.52;;;;;;;-144.47;51.64;53163.97;5045364;28;20017;-63
2022/07/06 04:27:08;;;;;;;8.18;1.85;;;;;;;-144.47;51.78;53209.66;5044728;28;20470;-66
2022/07/06 04:29:33;;;;;;;9.15;1.98;;;;;;;-144.47;51.78;53177.88;5045389;28;20052;-66
2022/07/06 04:34:53;;;;;;;7.22;1.65;;;;;;;-144.47;51.97;53152.03;5041907;28;20098;-67
2022/07/06 04:37:19;;;;;;;8.90;1.92;;;;;;;-144.47;51.91;53177.88;5043249;28;20437;-66
2022/07/06 04:39:44;;;;;;;7.53;1.85;;;;;;;-144.47;51.87;53175.88;5046095;28;20029;-66
2022/07/06 04:42:09;;;;;;;10.60;2.25;;;;;;;-144.47;51.73;53181.84;5044610;28;20482;-65
2022/07/06 04:44:35;;;;;;;15.82;2.15;;;;;;;-144.47;51.72;53146.09;5045707;28;20025;-66
2022/07/06 04:47:00;;;;;;;19.00;2.17;;;;;;;-144.47;51.72;53156.00;5048250;28;20028;-65
2022/07/06 04:49:25;;;;;;;20.38;3.28;;;;;;;-144.47;51.82;53185.81;5051481;28;20021;-65
2022/07/06 04:51:51;;;;;;;4.25;1.50;;;;;;;-144.47;51.66;53171.91;5049978;28;20605;-67
2022/07/06 04:54:16;;;;;;;2.97;1.20;;;;;;;-144.47;51.31;53165.94;5052353;28;20486;-65
2022/07/06 04:56:41;;;;;;;3.75;1.50;;;;;;;-144.47;51.10;53156.00;5051023;28;20029;-67
2022/07/06 04:59:07;;;;;;;4.57;1.40;;;;;;;-144.47;51.17;53132.19;5052485;28;20163;-63
2022/07/06 05:01:32;;;;;;;9.57;1.60;;;;;;;-144.47;51.02;53161.97;5040812;28;20106;-65
2022/07/06 05:03:57;;;;;;;8.57;1.63;;;;;;;-144.47;50.75;53169.91;5053144;28;20140;-65
2022/07/06 05:06:23;;;;;;;5.97;1.33;;;;;;;-144.47;50.55;53175.88;5041884;28;20587;-66
2022/07/06 05:08:48;;;;;;;14.25;1.83;;;;;;;-144.47;50.45;53154.03;5051967;28;20462;-66
2022/07/06 05:11:13;;;;;;;7.25;1.70;;;;;;;-144.47;50.27;53134.16;5049751;28;20331;-65
2022/07/06 05:13:39;;;;;;;6.47;1.58;;;;;;;-144.47;49.63;53154.03;5047461;28;20028;-65
2022/07/06 05:16:04;;;;;;;7.00;1.50;;;;;;;-144.47;49.16;53126.22;5042787;28;20017;-66
2022/07/06 05:18:30;;;;;;;6.30;1.60;;;;;;;-144.47;48.79;53130.19;5051129;28;20079;-65
2022/07/06 05:20:56;;;;;;;8.38;1.58;;;;;;;-144.47;48.70;53146.09;5049329;28;20021;-64
2022/07/06 05:23:21;;;;;;;7.40;1.33;;;;;;;-144.47;48.11;53177.88;5050655;28;20025;-66
2022/07/06 05:25:47;;;;;;;8.05;1.88;;;;;;;-144.47;47.89;53181.84;5050542;28;20103;-66
2022/07/06 05:28:12;;;;;;;6.10;1.65;;;;;;;-144.47;47.43;53154.03;5049111;28;20040;-66
2022/07/06 05:30:37;;;;;;;5.15;1.60;;;;;;;-144.47;47.54;53146.09;5049597;28;20044;-67
2022/07/06 05:33:03;;;;;;;4.75;1.33;;;;;;;-144.47;47.46;53154.03;5051410;28;20386;-65
2022/07/06 05:35:28;;;;;;;9.88;1.40;;;;;;;-144.47;47.72;53169.91;5050307;28;20035;-63
2022/07/06 05:37:54;;;;;;;4.75;1.35;;;;;;;-144.47;48.00;53163.97;5051473;28;20051;-65
2022/07/06 05:40:19;;;;;;;6.25;1.85;;;;;;;-144.47;47.81;53138.13;5051212;28;20021;-67
2022/07/06 05:42:44;;;;;;;6.32;1.67;;;;;;;-144.47;47.25;53120.25;5050063;28;20025;-65
2022/07/06 05:45:10;;;;;;;8.43;1.48;;;;;;;-144.47;47.01;53112.31;5048538;28;20101;-65
2022/07/06 05:50:19;;;;;;;6.57;2.00;;;;;;;-144.47;46.81;53142.09;5041084;28;20144;-67
2022/07/06 05:52:55;;;;;;;6.07;1.40;;;;;;;-144.47;46.50;53128.22;5048105;28;20044;-63
2022/07/06 05:55:21;;;;;;;13.80;1.55;;;;;;;-144.47;46.54;53156.00;5042884;28;20470;-67
2022/07/06 05:57:46;;;;;;;10.88;1.52;;;;;;;-144.47;46.27;53136.16;5044886;28;20077;-64
2022/07/06 06:00:12;;;;;;;6.45;1.60;;;;;;;-144.47;46.12;53124.22;5049317;28;20162;-66
2022/07/06 06:02:41;;;;;;;8.38;1.75;;;;;;;-144.47;45.86;53108.34;5037910;28;20394;-68
2022/07/06 06:05:07;;;;;;;;;;;;;;;-144.47;45.56;53142.09;5044629;28;20030;-64
2022/07/06 06:07:34;;;;;;;9.18;1.55;;;;;;;-144.47;45.50;53146.09;5051497;28;20334;-67
2022/07/06 06:10:00;;;;;;;4.97;1.30;;;;;;;-144.47;45.75;53126.22;5048315;28;20097;-69
2022/07/06 06:12:26;;;;;;;10.38;1.70;;;;;;;-144.47;45.64;53136.16;5045078;28;20411;-63
2022/07/06 06:14:51;;;;;;;10.13;2.03;;;;;;;-144.47;45.40;53126.22;5048477;28;20063;-67
2022/07/06 06:17:17;;;;;;;8.30;1.30;;;;;;;-144.47;45.20;53138.13;5043803;28;20025;-66
2022/07/06 06:19:42;;;;;;;4.40;1.30;;;;;;;-144.47;44.88;53152.03;5048978;28;20033;-67
2022/07/06 06:22:07;;;;;;;5.35;1.20;;;;;;;-144.47;44.56;53132.19;5049706;28;20017;-67
2022/07/06 06:24:33;;;;;;;10.13;2.00;;;;;;;-144.47;44.64;53142.09;5040971;28;20051;-67
2022/07/06 06:26:59;;;;;;;3.95;1.23;;;;;;;-144.47;44.53;53130.19;5042793;28;20025;-66
2022/07/06 06:29:25;;;;;;;16.40;2.42;;;;;;;-144.47;44.26;53156.00;5036602;28;20478;-66
2022/07/06 06:31:50;;;;;;;9.65;1.38;;;;;;;-144.47;44.18;53136.16;5044440;28;20035;-67
2022/07/06 06:34:16;;;;;;;12.93;1.40;;;;;;;-144.47;43.85;53165.94;5045717;28;20013;-66
2022/07/06 06:36:41;;;;;;;5.68;1.13;;;;;;;-144.47;43.74;53150.06;5049366;28;20485;-66
2022/07/06 06:39:06;;;;;;;4.47;1.17;;;;;;;-144.47;44.15;53173.88;5049931;28;20025;-68
2022/07/06 06:41:32;;;;;;;9.73;1.50;;;;;;;-144.47;44.25;53112.31;5050195;28;20028;-66
2022/07/06 06:43:57;;;;;;;4.78;1.15;;;;;;;-144.47;44.17;53118.28;5050533;28;20050;-65
2022/07/06 06:46:23;;;;;;;6.68;1.60;;;;;;;-144.47;44.16;53126.22;5041761;28;20474;-66
2022/07/06 06:48:48;;;;;;;8.85;1.80;;;;;;;-144.47;44.01;53104.38;5050108;28;20066;-70
2022/07/06 06:51:13;;;;;;;6.68;1.25;;;;;;;-144.47;44.17;53148.06;5049836;28;20422;-69
2022/07/06 06:53:39;;;;;;;7.32;1.70;;;;;;;-144.47;44.16;53102.38;5048357;28;20033;-68
2022/07/06 06:56:04;;;;;;;4.95;1.65;;;;;;;-144.47;43.85;53126.22;5049508;28;20021;-67
2022/07/06 07:01:07;;;;;;;17.10;1.70;;;;;;;-144.47;43.71;53102.38;5012183;28;20057;-68
2022/07/06 07:03:33;;;;;;;11.55;2.00;;;;;;;-144.47;43.23;53106.34;5016634;28;20049;-68
2022/07/06 07:05:58;;;;;;;9.10;1.73;;;;;;;-144.47;43.88;53092.44;5018375;28;20029;-67
2022/07/06 07:08:23;;;;;;;13.25;1.90;;;;;;;-144.47;44.29;53092.44;5009378;28;20104;-70
2022/07/06 07:10:49;;;;;;;6.07;1.65;;;;;;;-144.47;44.06;53100.41;5013109;28;20102;-68
2022/07/06 07:13:14;;;;;;;9.73;1.48;;;;;;;-144.47;43.80;53130.19;5018744;28;20097;-68
2022/07/06 07:15:40;;;;;;;5.38;1.58;;;;;;;-144.47;43.66;53152.03;5023617;28;20022;-68
2022/07/06 07:18:05;;;;;;;8.95;1.83;;;;;;;-144.47;43.65;53158.00;5009676;28;20076;-66
2022/07/06 07:20:33;;;;;;;7.63;1.65;;;;;;;-144.47;43.45;53146.09;5008777;28;20114;-67
2022/07/06 07:22:59;;;;;;;8.70;1.80;;;;;;;-144.47;43.77;53118.28;5026986;28;20029;-71
2022/07/06 07:25:24;;;;;;;7.57;1.45;;;;;;;-144.47;43.63;53124.22;5023269;28;20021;-69
2022/07/06 07:27:49;;;;;;;6.72;1.52;;;;;;;-144.47;43.48;53150.06;5015701;28;20030;-66
2022/07/06 07:30:15;;;;;;;3.03;1.23;;;;;;;-144.47;43.22;53161.97;5028411;28;20036;-69
2022/07/06 07:32:40;;;;;;;8.55;1.60;;;;;;;-144.47;42.41;53118.28;5009399;28;20105;-68
2022/07/06 07:35:06;;;;;;;4.78;1.63;;;;;;;-144.47;42.37;53114.31;5007622;28;20028;-66
2022/07/06 07:37:32;;;;;;;5.25;1.20;;;;;;;-144.47;42.52;53108.34;5006856;28;20485;-68
2022/07/06 07:39:58;;;;;;;5.45;1.60;;;;;;;-144.47;42.44;53106.34;5009059;28;20109;-69
2022/07/06 07:42:23;;;;;;;11.10;1.60;;;;;;;-144.47;42.56;53126.22;5012832;28;20028;-68
2022/07/06 07:44:49;;;;;;;8.25;1.92;;;;;;;-144.47;41.88;53094.44;5018277;28;20018;-69
2022/07/06 07:47:14;;;;;;;3.75;1.30;;;;;;;-144.47;41.21;53150.06;5008635;28;20610;-69
2022/07/06 07:49:39;;;;;;;9.15;1.30;;;;;;;-144.47;41.51;53096.41;5008883;28;20021;-66
2022/07/06 07:52:05;;;;;;;8.57;1.25;;;;;;;-144.47;41.80;53092.44;5022227;28;20021;-67
2022/07/06 07:54:30;;;;;;;3.80;1.52;;;;;;;-144.47;41.78;53114.31;5008886;28;20027;-67
2022/07/06 07:56:56;;;;;;;8.88;1.60;;;;;;;-144.47;41.72;53136.16;5020690;28;20036;-69
2022/07/06 07:59:22;;;;;;;7.15;1.58;;;;;;;-144.47;41.90;53086.50;5017258;28;20172;-67
2022/07/06 08:01:47;;;;;;;5.70;1.85;;;;;;;-144.47;41.69;53110.31;5014150;28;20022;-67
2022/07/06 08:04:13;;;;;;;6.43;1.88;;;;;;;-144.47;41.38;53136.16;5017215;28;20494;-68
2022/07/06 08:06:38;;;;;;;10.60;1.70;;;;;;;-144.47;41.47;53090.47;5014295;28;20482;-66
2022/07/06 08:09:04;;;;;;;13.40;1.38;;;;;;;-144.47;41.00;53102.38;5018128;28;20030;-69
2022/07/06 08:11:30;;;;;;;5.57;1.50;;;;;;;-144.47;40.06;53122.25;5019622;28;20502;-68
2022/07/06 08:13:55;;;;;;;3.47;1.15;;;;;;;-144.47;39.74;53104.38;5024060;28;20053;-67
2022/07/06 08:16:21;;;;;;;3.13;1.20;;;;;;;-144.47;39.15;53102.38;5011224;28;20040;-69
2022/07/06 08:18:46;;;;;;;4.35;1.00;;;;;;;-144.47;38.93;53084.50;5017899;28;20541;-68
2022/07/06 08:21:11;;;;;;;4.15;1.10;;;;;;;-144.47;38.74;53122.25;5014105;28;20060;-68
2022/07/06 08:23:37;;;;;;;6.65;1.83;;;;;;;-144.47;38.82;53088.47;5026497;28;20187;-69
2022/07/06 08:26:03;;;;;;;7.70;1.25;;;;;;;-144.47;38.89;53082.53;5017987;28;20037;-68
2022/07/06 08:28:29;;;;;;;7.22;1.15;;;;;;;-144.47;39.04;53078.53;5017786;28;20052;-67
2022/07/06 08:30:54;;;;;;;6.35;1.35;;;;;;;-144.47;38.78;53094.44;5023920;28;20048;-66
2022/07/06 08:33:20;;;;;;;9.43;1.30;;;;;;;-144.47;39.34;53070.59;5010187;28;20456;-69
2022/07/06 08:35:46;;;;;;;10.45;1.52;;;;;;;-144.47;39.51;53092.44;5024077;28;20395;-66
2022/07/06 08:38:11;;;;;;;7.70;2.47;;;;;;;-144.47;39.22;53126.22;5020922;28;20041;-68
2022/07/06 08:40:39;;;;;;;6.18;1.30;;;;;;;-144.47;39.26;53096.41;5013749;28;20068;-69
2022/07/06 08:43:05;;;;;;;5.00;1.10;;;;;;;-144.47;39.47;53110.31;5010569;28;20029;-69
2022/07/06 08:45:34;;;;;;;5.35;1.20;;;;;;;-144.47;39.19;53116.28;5027705;28;20029;-69
2022/07/06 08:48:05;;;;;;;4.97;1.10;;;;;;;-144.47;38.89;53098.41;5029336;28;20494;-68
2022/07/06 08:50:31;;;;;;;5.60;1.30;;;;;;;-144.47;38.12;53114.31;5017586;28;20108;-70
2022/07/06 08:52:57;;;;;;;8.23;1.27;;;;;;;-144.47;37.51;53104.38;5031120;28;20116;-69
2022/07/06 08:55:23;;;;;;;2.83;1.13;;;;;;;-144.47;38.00;53094.44;5026183;28;20117;-68
2022/07/06 08:57:48;;;;;;;2.75;1.10;;;;;;;-144.47;37.63;53106.34;5010036;28;20544;-67
2022/07/06 09:00:14;;;;;;;7.93;1.33;;;;;;;-144.47;37.48;53082.53;4970410;28;1143478;-67
2022/07/06 09:02:40;;;;;;;4.43;1.30;;;;;;;-144.47;37.11;53112.31;5022453;28;20033;-70
2022/07/06 09:05:08;;;;;;;7.88;1.25;;;;;;;-144.47;37.05;53072.59;5016182;28;20048;-67
2022/07/06 09:07:36;;;;;;;7.53;1.00;;;;;;;-144.47;37.18;53102.38;5022628;28;20028;-69
2022/07/06 09:10:03;;;;;;;8.32;1.33;;;;;;;-144.47;37.42;53098.41;5030035;28;20025;-69
2022/07/06 09:12:29;;;;;;;12.52;2.00;;;;;;;-144.47;37.37;53078.53;5027967;28;20034;-68
2022/07/06 09:14:57;;;;;;;5.50;1.35;;;;;;;-144.47;37.66;53108.34;5032153;28;20408;-67
2022/07/06 09:17:28;;;;;;;6.28;1.27;;;;;;;-144.47;37.56;53122.25;5018062;28;20030;-68
2022/07/06 09:19:54;;;;;;;8.52;1.40;;;;;;;-144.47;37.23;53072.59;5029123;28;20072;-67
2022/07/06 09:22:31;;;;;;;3.65;1.10;;;;;;;-144.47;37.58;53094.44;5028321;28;20506;-65
2022/07/06 09:25:04;;;;;;;9.73;1.20;;;;;;;-144.47;37.22;53118.28;5027757;28;20568;-67
2022/07/06 09:27:29;;;;;;;5.25;1.00;;;;;;;-144.47;36.78;53088.47;5016747;28;20053;-67
2022/07/06 09:30:00;;;;;;;4.38;1.17;;;;;;;-144.47;36.23;53072.59;5022141;28;20057;-66
2022/07/06 09:32:26;;;;;;;11.82;3.85;;;;;;;-144.47;36.01;53124.22;5014493;28;20344;-67
2022/07/06 09:34:51;;;;;;;6.82;1.25;;;;;;;-144.47;35.96;53076.56;5017850;28;20524;-65
2022/07/06 09:37:16;;;;;;;2.30;1.00;;;;;;;-144.47;35.78;53074.56;5025583;28;20471;-65
2022/07/06 09:39:43;;;;;;;6.63;1.30;;;;;;;-144.47;35.49;53078.53;5018221;28;20435;-67
2022/07/06 09:42:09;;;;;;;4.45;1.23;;;;;;;-144.47;35.12;53098.41;5029297;28;20060;-66
2022/07/06 09:44:37;;;;;;;6.78;1.20;;;;;;;-144.47;35.38;53092.44;5018585;28;20057;-68
2022/07/06 09:47:05;;;;;;;8.15;1.60;;;;;;;-144.47;35.26;53086.50;5015734;28;20034;-66
2022/07/06 09:49:30;;;;;;;2.25;1.13;;;;;;;-144.47;35.01;53072.59;5030462;28;20029;-66
2022/07/06 09:51:58;;;;;;;4.78;1.35;;;;;;;-144.47;34.88;53102.38;5010695;28;20036;-66
2022/07/06 09:54:24;;;;;;;6.03;1.30;;;;;;;-144.47;35.18;53054.72;5011325;28;20021;-63
2022/07/06 09:56:51;;;;;;;11.02;1.98;;;;;;;-144.47;35.41;53100.41;5029514;28;20091;-63
2022/07/06 09:59:21;;;;;;;11.38;1.23;;;;;;;-144.47;35.67;53078.53;5017482;28;20036;-66
2022/07/06 10:01:49;;;;;;;6.57;1.23;;;;;;;-144.47;35.65;53076.56;5023383;28;20029;-67
2022/07/06 10:04:18;;;;;;;6.47;1.23;;;;;;;-144.47;35.26;53098.41;5009699;28;20518;-67
2022/07/06 10:06:44;;;;;;;5.85;1.38;;;;;;;-144.47;34.90;53106.34;5010614;28;20087;-67
2022/07/06 10:09:12;;;;;;;5.05;1.30;;;;;;;-144.47;34.64;53038.81;5008722;28;20036;-67
2022/07/06 10:11:39;;;;;;;8.07;1.60;;;;;;;-144.47;34.62;53054.72;5025984;28;20087;-67
2022/07/06 10:14:06;;;;;;;5.50;1.38;;;;;;;-144.47;34.60;53094.44;5025386;28;20021;-64
2022/07/06 10:16:35;;;;;;;4.10;0.90;;;;;;;-144.47;34.94;53098.41;5009325;28;20113;-69
2022/07/06 10:19:03;;;;;;;8.57;1.30;;;;;;;-144.47;35.37;53108.34;5023138;28;20164;-65
2022/07/06 10:21:30;;;;;;;4.13;1.00;;;;;;;-144.47;35.36;53086.50;5020915;28;20440;-67
2022/07/06 10:23:59;;;;;;;3.22;0.98;;;;;;;-144.47;35.35;53084.50;5021926;28;20112;-63
2022/07/06 10:26:25;;;;;;;3.28;1.30;;;;;;;-144.47;35.41;53086.50;5010745;28;20028;-67
2022/07/06 10:28:52;;;;;;;3.42;1.10;;;;;;;-144.47;35.08;53106.34;5015399;28;20029;-65
2022/07/06 10:31:19;;;;;;;3.63;0.90;;;;;;;-144.47;34.82;53070.59;5022097;28;20026;-66
2022/07/06 10:33:46;;;;;;;10.43;1.50;;;;;;;-144.47;34.17;53078.53;5015542;28;20017;-65
2022/07/06 10:36:13;;;;;;;10.07;1.13;;;;;;;-144.47;34.30;53078.53;5015477;28;20033;-66
2022/07/06 10:38:39;;;;;;;5.47;1.10;;;;;;;-144.47;34.54;53070.59;5029237;28;20030;-67
2022/07/06 10:41:09;;;;;;;3.38;0.88;;;;;;;-144.47;34.46;53082.53;5023175;28;20108;-67
2022/07/06 10:43:41;;;;;;;7.45;1.02;;;;;;;-144.47;34.02;53086.50;5021975;28;20025;-66
2022/07/06 10:46:08;;;;;;;5.75;1.38;;;;;;;-144.47;34.12;53124.22;5027209;28;20048;-66
2022/07/06 10:48:41;;;;;;;3.92;0.90;;;;;;;-144.47;34.28;53072.59;5023947;28;20018;-66
2022/07/06 10:51:08;;;;;;;10.30;1.48;;;;;;;-144.47;34.15;53108.34;5020235;28;20026;-66
2022/07/06 10:53:38;;;;;;;4.40;0.95;;;;;;;-144.47;34.05;53094.44;5028070;28;20021;-66
2022/07/06 10:56:08;;;;;;;3.83;0.80;;;;;;;-144.47;33.63;53084.50;5020029;28;20226;-66
2022/07/06 10:58:46;;;;;;;7.13;1.00;;;;;;;-144.47;33.76;53092.44;5017702;28;20056;-66
2022/07/06 11:01:12;;;;;;;4.07;1.10;;;;;;;-144.47;33.15;53076.56;5012603;28;20068;-65
2022/07/06 11:03:48;;;;;;;3.10;0.93;;;;;;;-144.47;32.72;53060.66;5018644;28;20058;-68
2022/07/06 11:06:16;;;;;;;4.68;1.23;;;;;;;-144.47;32.18;53050.75;5014551;28;20447;-64
2022/07/06 11:08:48;;;;;;;5.43;1.25;;;;;;;-144.47;32.54;53074.56;5021702;28;20025;-65
2022/07/06 11:11:19;;;;;;;7.22;1.33;;;;;;;-144.47;32.65;53022.94;5016268;28;20052;-67
2022/07/06 11:13:48;;;;;;;5.65;1.00;;;;;;;-144.47;32.38;53074.56;5022965;28;20452;-65
2022/07/06 11:16:14;;;;;;;8.75;1.30;;;;;;;-144.47;32.28;53076.56;5012130;28;20025;-66
2022/07/06 11:18:41;;;;;;;5.93;0.80;;;;;;;-144.47;32.68;53086.50;5016996;28;20030;-66
2022/07/06 11:21:21;;;;;;;3.78;1.10;;;;;;;-144.47;32.46;53052.72;5014828;28;20026;-66
2022/07/06 11:23:48;;;;;;;6.00;1.25;;;;;;;-144.47;32.30;53060.66;5021961;28;20376;-65